Epiphany, South Dakota
Current Conditions -  °F | °C
As of 2:55 PM on Thursday 27 Nov 2014 (Local Time) from KMDS Reporting Station
Overcast Overcast  
Wind Chill: -8°   Ceiling: 3400
Heat Index:   Visibility: 10mi
Dew Point:   Wind: 14mph
Humidity: 67%   Direction: 130°SE
Pressure: 30.24"   Gusts: 20mph
Location:  43.8924°N, 97.5502°W
Report Text: KMDS 272055Z AUTO 13012G17KT 10SM OVC034 M13/M18 A3024 RMK AO2
Loading
Personal Weather Stations






























Interactive Weather Map New forecast layout! Learn more

10-Day Weather Forecast

Advertisements
Track Severe Weather on mobile